• Join FlightAware (Why Join?)
  • Login
  • US Flag 
07:58PM EDT


 

Airport Tracker/Info


-or-


 

Live Flight TrackerFlight Track Log ✈ SLI2069 ✈ 30-Aug-2013 ✈ MMLP / LAP - MMMX / MEX

Flight Track Log - Related Links

Times and Time Zones

All times are in EDT time to prevent confusion due to time zone crossing. See the SLI2069 flight status page for this flight to view local times or setup timezone preferences in your user account.

Time Position Orientation Groundspeed Altitude Reporting Facility
EDT Latitude Longitude Course Direction KTS MPH feet Rate Location/Type
08:59AM 22.6656 -106.6477 112° Southeast  Level Estimated
09:00AM 22.6264 -106.5484 113° Southeast  Level Estimated
09:01AM 22.5871 -106.4492 113° Southeast  Level Estimated
09:02AM 22.5478 -106.3500 113° Southeast  Level Estimated
09:03AM 22.5083 -106.2508 113° Southeast  Level Estimated
09:04AM 22.4689 -106.1517 113° Southeast  Level Estimated
09:05AM 22.4293 -106.0527 113° Southeast  Level Estimated
09:06AM 22.3897 -105.9537 113° Southeast  Level Estimated
09:07AM 22.3501 -105.8548 113° Southeast  Level Estimated
09:08AM 22.3104 -105.7560 113° Southeast  Level Estimated
09:09AM 22.2706 -105.6572 113° Southeast  Level Estimated
09:10AM 22.2308 -105.5584 114° Southeast  Level Estimated
09:11AM 22.1909 -105.4597 114° Southeast  Level Estimated
09:12AM 22.1509 -105.3611 114° Southeast  Level Estimated
09:13AM 22.1109 -105.2625 114° Southeast  Level Estimated
09:14AM 22.0709 -105.1640 114° Southeast  Level Estimated
09:15AM 22.0307 -105.0655 114° Southeast  Level Estimated
09:16AM 21.9905 -104.9671 114° Southeast  Level Estimated
09:17AM 21.9503 -104.8688 114° Southeast  Level Estimated
09:18AM 21.9100 -104.7705 114° Southeast  Level Estimated
09:19AM 21.8696 -104.6722 114° Southeast  Level Estimated
09:20AM 21.8292 -104.5740 114° Southeast  Level Estimated
09:21AM 21.7887 -104.4759 114° Southeast  Level Estimated
09:22AM 21.7482 -104.3778 114° Southeast  Level Estimated
09:23AM 21.7076 -104.2798 114° Southeast  Level Estimated
09:24AM 21.6670 -104.1818 114° Southeast  Level Estimated
09:25AM 21.6262 -104.0839 114° Southeast  Level Estimated
09:26AM 21.5855 -103.9861 114° Southeast  Level Estimated
09:27AM 21.5447 -103.8883 114° Southeast  Level Estimated
09:28AM 21.5038 -103.7905 114° Southeast  Level Estimated
09:29AM 21.4628 -103.6928 114° Southeast  Level Estimated
09:30AM 21.4219 -103.5952 114° Southeast  Level Estimated
09:31AM 21.3808 -103.4976 114° Southeast  Level Estimated
09:32AM 21.3397 -103.4001 114° Southeast  Level Estimated
09:33AM 21.2985 -103.3027 114° Southeast  Level Estimated
09:34AM 21.2573 -103.2052 114° Southeast  Level Estimated
09:35AM 21.2160 -103.1079 114° Southeast  Level Estimated
09:36AM 21.1747 -103.0106 114° Southeast  Level Estimated
09:37AM 21.1333 -102.9133 115° Southeast  Level Estimated
09:38AM 21.0919 -102.8161 115° Southeast  Level Estimated
09:39AM 21.0504 -102.7190 115° Southeast  Level Estimated
09:40AM 21.0088 -102.6219 115° Southeast  Level Estimated
09:41AM 20.9672 -102.5248 115° Southeast  Level Estimated
09:42AM 20.9256 -102.4279 115° Southeast  Level Estimated
09:43AM 20.8838 -102.3309 115° Southeast  Level Estimated
09:44AM 20.8421 -102.2341 115° Southeast  Level Estimated
09:45AM 20.8002 -102.1372 115° Southeast  Level Estimated
09:46AM 20.7584 -102.0405 115° Southeast  Level Estimated
09:47AM 20.7164 -101.9438 115° Southeast  Level Estimated
09:48AM 20.6744 -101.8471 115° Southeast  Level Estimated
09:49AM 20.6324 -101.7505 115° Southeast  Level Estimated
09:50AM 20.5903 -101.6539 115° Southeast  Level Estimated
09:51AM 20.5481 -101.5574 115° Southeast  Level Estimated
09:52AM 20.5059 -101.4610 115° Southeast  Level Estimated
09:53AM 20.4637 -101.3646 115° Southeast  Level Estimated
09:54AM 20.4214 -101.2683 115° Southeast  Level Estimated
09:55AM 20.3790 -101.1720 115° Southeast  Level Estimated
09:56AM 20.3366 -101.0757 115° Southeast  Level Estimated
09:57AM 20.2941 -100.9796 115° Southeast  Level Estimated
09:58AM 20.2516 -100.8834 115° Southeast  Level Estimated
09:59AM 20.2090 -100.7874 115° Southeast  Level Estimated
10:00AM 20.1664 -100.6913 115° Southeast  Level Estimated
10:01AM 20.1237 -100.5954 115° Southeast  Level Estimated
10:02AM 20.0810 -100.4995 115° Southeast  Level Estimated
10:03AM 20.0382 -100.4036 115° Southeast  Level Estimated
10:04AM 19.9954 -100.3078 115° Southeast  Level Estimated
10:05AM 19.9525 -100.2120 115° Southeast  Level Estimated
10:06AM 19.9096 -100.1163 115° Southeast  Level Estimated
10:07AM 19.8666 -100.0206 116° Southeast  Level Estimated
10:08AM 19.8235 -99.9250 116° Southeast  Level Estimated
10:09AM 19.7804 -99.8295 116° Southeast  Level Estimated
10:10AM 19.7373 -99.7340 116° Southeast  Level Estimated
10:11AM 19.6941 -99.6385 116° Southeast  Level Estimated
10:12AM 19.6509 -99.5431 116° Southeast  Level Estimated
10:13AM 19.6076 -99.4478 116° Southeast  Level Estimated
10:14AM 19.5642 -99.3525 116° Southeast  Level Estimated
10:15AM 19.5208 -99.2572 116° Southeast  Level Estimated
10:16AM 19.4774 -99.1620 116° Southeast  Level Estimated
10:17AM 19.4363 -99.0721 116° Southeast  Level Estimated
10:18AM 19.4363 -99.0721 43° Northeast  Level Estimated
10:19AM 19.4363 -99.0721 43° Northeast  Level Estimated
10:20AM 19.4363 -99.0721 43° Northeast  Level Estimated
10:21AM 19.4363 -99.0721 43° Northeast  Level Estimated
10:22AM 19.4363 -99.0721 43° Northeast  Level Estimated
10:23AM 19.4363 -99.0721 43° Northeast  Level Estimated
10:24AM 19.4363 -99.0721 43° Northeast  Level Estimated